sensor_id;sensor_type;location;lat;lon;timestamp;P1;durP1;ratioP1;P2;durP2;ratioP2
30948;SDS011;17637;51.984;21.208;2023-08-08T00:01:24;2.47;;;2.10;;
30948;SDS011;17637;51.984;21.208;2023-08-08T00:03:56;4.32;;;2.17;;
30948;SDS011;17637;51.984;21.208;2023-08-08T00:06:28;4.07;;;2.13;;
30948;SDS011;17637;51.984;21.208;2023-08-08T00:09:00;3.92;;;2.20;;
30948;SDS011;17637;51.984;21.208;2023-08-08T00:11:32;3.38;;;2.00;;
30948;SDS011;17637;51.984;21.208;2023-08-08T00:14:04;4.22;;;2.22;;
30948;SDS011;17637;51.984;21.208;2023-08-08T00:16:36;3.70;;;1.98;;
30948;SDS011;17637;51.984;21.208;2023-08-08T00:19:08;3.38;;;2.25;;
30948;SDS011;17637;51.984;21.208;2023-08-08T00:21:40;6.60;;;2.13;;
30948;SDS011;17637;51.984;21.208;2023-08-08T00:24:11;5.93;;;2.15;;
30948;SDS011;17637;51.984;21.208;2023-08-08T00:26:43;7.03;;;2.20;;
30948;SDS011;17637;51.984;21.208;2023-08-08T00:29:15;3.05;;;2.00;;
30948;SDS011;17637;51.984;21.208;2023-08-08T00:31:47;4.15;;;2.10;;
30948;SDS011;17637;51.984;21.208;2023-08-08T00:34:19;4.28;;;2.20;;
30948;SDS011;17637;51.984;21.208;2023-08-08T00:36:50;5.25;;;2.42;;
30948;SDS011;17637;51.984;21.208;2023-08-08T00:39:22;3.70;;;2.20;;
30948;SDS011;17637;51.984;21.208;2023-08-08T00:41:54;3.92;;;2.42;;
30948;SDS011;17637;51.984;21.208;2023-08-08T00:44:27;6.57;;;2.60;;
30948;SDS011;17637;51.984;21.208;2023-08-08T00:46:58;5.85;;;2.40;;
30948;SDS011;17637;51.984;21.208;2023-08-08T00:49:31;4.40;;;2.30;;
30948;SDS011;17637;51.984;21.208;2023-08-08T00:52:02;6.65;;;2.08;;
30948;SDS011;17637;51.984;21.208;2023-08-08T00:54:35;4.40;;;2.22;;
30948;SDS011;17637;51.984;21.208;2023-08-08T00:57:07;5.22;;;2.08;;
30948;SDS011;17637;51.984;21.208;2023-08-08T00:59:38;6.55;;;2.28;;
30948;SDS011;17637;51.984;21.208;2023-08-08T01:02:11;4.95;;;2.45;;
30948;SDS011;17637;51.984;21.208;2023-08-08T01:04:43;4.78;;;2.30;;
30948;SDS011;17637;51.984;21.208;2023-08-08T01:07:20;6.60;;;2.67;;
30948;SDS011;17637;51.984;21.208;2023-08-08T01:12:50;5.97;;;2.28;;
30948;SDS011;17637;51.984;21.208;2023-08-08T01:17:59;6.80;;;2.28;;
30948;SDS011;17637;51.984;21.208;2023-08-08T01:20:32;5.15;;;2.17;;
30948;SDS011;17637;51.984;21.208;2023-08-08T01:23:12;7.53;;;2.20;;
30948;SDS011;17637;51.984;21.208;2023-08-08T01:25:57;5.15;;;2.30;;
30948;SDS011;17637;51.984;21.208;2023-08-08T01:28:30;8.38;;;2.40;;
30948;SDS011;17637;51.984;21.208;2023-08-08T01:31:02;4.43;;;2.20;;
30948;SDS011;17637;51.984;21.208;2023-08-08T01:33:34;5.15;;;2.20;;
30948;SDS011;17637;51.984;21.208;2023-08-08T01:39:04;5.63;;;2.15;;
30948;SDS011;17637;51.984;21.208;2023-08-08T01:41:43;4.80;;;2.33;;
30948;SDS011;17637;51.984;21.208;2023-08-08T01:44:19;5.97;;;2.30;;
30948;SDS011;17637;51.984;21.208;2023-08-08T01:46:52;8.70;;;2.70;;
30948;SDS011;17637;51.984;21.208;2023-08-08T01:49:25;4.97;;;2.83;;
30948;SDS011;17637;51.984;21.208;2023-08-08T01:51:57;8.10;;;2.78;;
30948;SDS011;17637;51.984;21.208;2023-08-08T01:54:29;6.55;;;2.30;;
30948;SDS011;17637;51.984;21.208;2023-08-08T01:57:01;6.63;;;2.35;;
30948;SDS011;17637;51.984;21.208;2023-08-08T01:59:33;8.85;;;2.80;;
30948;SDS011;17637;51.984;21.208;2023-08-08T02:02:05;9.10;;;2.42;;
30948;SDS011;17637;51.984;21.208;2023-08-08T02:04:38;6.80;;;2.50;;
30948;SDS011;17637;51.984;21.208;2023-08-08T02:07:09;6.93;;;2.65;;
30948;SDS011;17637;51.984;21.208;2023-08-08T02:09:41;5.68;;;2.63;;
30948;SDS011;17637;51.984;21.208;2023-08-08T02:12:13;7.60;;;2.90;;
30948;SDS011;17637;51.984;21.208;2023-08-08T02:14:45;4.93;;;2.28;;
30948;SDS011;17637;51.984;21.208;2023-08-08T02:17:17;5.00;;;2.47;;
30948;SDS011;17637;51.984;21.208;2023-08-08T02:19:49;7.93;;;2.63;;
30948;SDS011;17637;51.984;21.208;2023-08-08T02:22:21;7.25;;;2.70;;
30948;SDS011;17637;51.984;21.208;2023-08-08T02:24:53;7.75;;;2.50;;
30948;SDS011;17637;51.984;21.208;2023-08-08T02:27:25;8.15;;;2.53;;
30948;SDS011;17637;51.984;21.208;2023-08-08T02:29:57;6.03;;;2.22;;
30948;SDS011;17637;51.984;21.208;2023-08-08T02:32:29;5.40;;;2.60;;
30948;SDS011;17637;51.984;21.208;2023-08-08T02:35:01;9.30;;;2.67;;
30948;SDS011;17637;51.984;21.208;2023-08-08T02:37:33;7.43;;;2.67;;
30948;SDS011;17637;51.984;21.208;2023-08-08T02:40:05;5.80;;;2.50;;
30948;SDS011;17637;51.984;21.208;2023-08-08T02:42:38;6.05;;;2.58;;
30948;SDS011;17637;51.984;21.208;2023-08-08T02:45:10;6.15;;;2.67;;
30948;SDS011;17637;51.984;21.208;2023-08-08T02:47:41;4.60;;;2.10;;
30948;SDS011;17637;51.984;21.208;2023-08-08T02:50:13;4.00;;;2.22;;
30948;SDS011;17637;51.984;21.208;2023-08-08T02:52:45;6.80;;;3.15;;
30948;SDS011;17637;51.984;21.208;2023-08-08T02:55:17;7.72;;;2.40;;
30948;SDS011;17637;51.984;21.208;2023-08-08T02:57:49;8.15;;;2.67;;
30948;SDS011;17637;51.984;21.208;2023-08-08T03:00:21;10.02;;;2.70;;
30948;SDS011;17637;51.984;21.208;2023-08-08T03:02:53;4.95;;;2.50;;
30948;SDS011;17637;51.984;21.208;2023-08-08T03:05:25;6.53;;;2.45;;
30948;SDS011;17637;51.984;21.208;2023-08-08T03:07:56;6.88;;;2.42;;
30948;SDS011;17637;51.984;21.208;2023-08-08T03:10:28;4.90;;;2.53;;
30948;SDS011;17637;51.984;21.208;2023-08-08T03:13:00;8.70;;;2.47;;
30948;SDS011;17637;51.984;21.208;2023-08-08T03:15:32;7.90;;;2.72;;
30948;SDS011;17637;51.984;21.208;2023-08-08T03:18:04;5.75;;;2.42;;
30948;SDS011;17637;51.984;21.208;2023-08-08T03:20:36;4.60;;;2.58;;
30948;SDS011;17637;51.984;21.208;2023-08-08T03:23:08;4.95;;;2.97;;
30948;SDS011;17637;51.984;21.208;2023-08-08T03:25:40;6.97;;;2.08;;
30948;SDS011;17637;51.984;21.208;2023-08-08T03:28:12;4.10;;;2.30;;
30948;SDS011;17637;51.984;21.208;2023-08-08T03:30:43;5.20;;;2.50;;
30948;SDS011;17637;51.984;21.208;2023-08-08T03:33:15;6.18;;;2.63;;
30948;SDS011;17637;51.984;21.208;2023-08-08T03:35:47;7.03;;;2.28;;
30948;SDS011;17637;51.984;21.208;2023-08-08T03:38:19;6.10;;;2.65;;
30948;SDS011;17637;51.984;21.208;2023-08-08T03:40:51;6.30;;;2.35;;
30948;SDS011;17637;51.984;21.208;2023-08-08T03:43:23;5.65;;;2.40;;
30948;SDS011;17637;51.984;21.208;2023-08-08T03:45:55;5.60;;;2.45;;
30948;SDS011;17637;51.984;21.208;2023-08-08T03:48:27;5.43;;;2.47;;
30948;SDS011;17637;51.984;21.208;2023-08-08T03:50:59;10.27;;;3.22;;
30948;SDS011;17637;51.984;21.208;2023-08-08T03:53:31;5.72;;;3.10;;
30948;SDS011;17637;51.984;21.208;2023-08-08T03:56:03;6.35;;;2.55;;
30948;SDS011;17637;51.984;21.208;2023-08-08T03:58:35;5.18;;;2.28;;
30948;SDS011;17637;51.984;21.208;2023-08-08T04:01:07;4.22;;;2.30;;
30948;SDS011;17637;51.984;21.208;2023-08-08T04:03:39;6.22;;;2.42;;
30948;SDS011;17637;51.984;21.208;2023-08-08T04:06:11;8.15;;;2.83;;
30948;SDS011;17637;51.984;21.208;2023-08-08T04:08:42;8.02;;;2.58;;
30948;SDS011;17637;51.984;21.208;2023-08-08T04:11:14;6.63;;;2.25;;
30948;SDS011;17637;51.984;21.208;2023-08-08T04:13:46;5.65;;;2.22;;
30948;SDS011;17637;51.984;21.208;2023-08-08T04:16:18;7.35;;;2.83;;
30948;SDS011;17637;51.984;21.208;2023-08-08T04:18:50;7.55;;;2.33;;
30948;SDS011;17637;51.984;21.208;2023-08-08T04:21:22;6.07;;;2.30;;
30948;SDS011;17637;51.984;21.208;2023-08-08T04:23:55;7.25;;;2.20;;
30948;SDS011;17637;51.984;21.208;2023-08-08T04:26:26;5.93;;;2.30;;
30948;SDS011;17637;51.984;21.208;2023-08-08T04:28:58;8.63;;;2.88;;
30948;SDS011;17637;51.984;21.208;2023-08-08T04:31:30;5.72;;;2.65;;
30948;SDS011;17637;51.984;21.208;2023-08-08T04:34:02;7.13;;;2.45;;
30948;SDS011;17637;51.984;21.208;2023-08-08T04:36:34;8.68;;;2.40;;
30948;SDS011;17637;51.984;21.208;2023-08-08T04:39:06;5.47;;;2.00;;
30948;SDS011;17637;51.984;21.208;2023-08-08T04:41:38;5.88;;;2.60;;
30948;SDS011;17637;51.984;21.208;2023-08-08T04:44:09;5.47;;;2.30;;
30948;SDS011;17637;51.984;21.208;2023-08-08T04:46:41;6.53;;;2.40;;
30948;SDS011;17637;51.984;21.208;2023-08-08T04:49:13;5.47;;;2.40;;
30948;SDS011;17637;51.984;21.208;2023-08-08T04:51:45;7.85;;;2.53;;
30948;SDS011;17637;51.984;21.208;2023-08-08T04:54:17;5.78;;;1.90;;
30948;SDS011;17637;51.984;21.208;2023-08-08T04:56:48;6.78;;;2.50;;
30948;SDS011;17637;51.984;21.208;2023-08-08T04:59:20;9.55;;;2.33;;
30948;SDS011;17637;51.984;21.208;2023-08-08T05:01:52;5.18;;;2.35;;
30948;SDS011;17637;51.984;21.208;2023-08-08T05:04:24;5.43;;;2.20;;
30948;SDS011;17637;51.984;21.208;2023-08-08T05:06:55;9.00;;;2.67;;
30948;SDS011;17637;51.984;21.208;2023-08-08T05:09:29;6.00;;;1.90;;
30948;SDS011;17637;51.984;21.208;2023-08-08T05:12:01;9.20;;;2.83;;
30948;SDS011;17637;51.984;21.208;2023-08-08T05:14:34;7.53;;;2.78;;
30948;SDS011;17637;51.984;21.208;2023-08-08T05:17:06;4.47;;;2.15;;
30948;SDS011;17637;51.984;21.208;2023-08-08T05:19:38;6.97;;;2.03;;
30948;SDS011;17637;51.984;21.208;2023-08-08T05:22:10;6.72;;;2.50;;
30948;SDS011;17637;51.984;21.208;2023-08-08T05:24:42;9.90;;;2.65;;
30948;SDS011;17637;51.984;21.208;2023-08-08T05:27:14;5.75;;;1.83;;
30948;SDS011;17637;51.984;21.208;2023-08-08T05:29:46;5.25;;;2.20;;
30948;SDS011;17637;51.984;21.208;2023-08-08T05:32:17;4.97;;;1.95;;
30948;SDS011;17637;51.984;21.208;2023-08-08T05:34:50;7.93;;;2.67;;
30948;SDS011;17637;51.984;21.208;2023-08-08T05:37:23;11.15;;;2.40;;
30948;SDS011;17637;51.984;21.208;2023-08-08T05:39:56;7.28;;;2.22;;
30948;SDS011;17637;51.984;21.208;2023-08-08T05:42:28;3.75;;;2.10;;
30948;SDS011;17637;51.984;21.208;2023-08-08T05:45:01;5.60;;;2.40;;
30948;SDS011;17637;51.984;21.208;2023-08-08T05:47:32;5.88;;;2.13;;
30948;SDS011;17637;51.984;21.208;2023-08-08T05:50:05;7.28;;;2.40;;
30948;SDS011;17637;51.984;21.208;2023-08-08T05:52:37;4.50;;;2.03;;
30948;SDS011;17637;51.984;21.208;2023-08-08T05:55:09;4.32;;;2.30;;
30948;SDS011;17637;51.984;21.208;2023-08-08T05:57:41;4.40;;;1.90;;
30948;SDS011;17637;51.984;21.208;2023-08-08T06:00:13;7.40;;;2.45;;
30948;SDS011;17637;51.984;21.208;2023-08-08T06:02:45;6.35;;;2.63;;
30948;SDS011;17637;51.984;21.208;2023-08-08T06:05:17;4.28;;;2.15;;
30948;SDS011;17637;51.984;21.208;2023-08-08T06:07:53;7.82;;;2.60;;
30948;SDS011;17637;51.984;21.208;2023-08-08T06:10:26;3.72;;;2.00;;
30948;SDS011;17637;51.984;21.208;2023-08-08T06:12:58;7.03;;;2.35;;
30948;SDS011;17637;51.984;21.208;2023-08-08T06:15:30;5.35;;;2.40;;
30948;SDS011;17637;51.984;21.208;2023-08-08T06:18:02;6.80;;;2.50;;
30948;SDS011;17637;51.984;21.208;2023-08-08T06:20:34;6.25;;;2.20;;
30948;SDS011;17637;51.984;21.208;2023-08-08T06:23:06;6.70;;;2.50;;
30948;SDS011;17637;51.984;21.208;2023-08-08T06:25:38;8.95;;;2.60;;
30948;SDS011;17637;51.984;21.208;2023-08-08T06:28:10;4.90;;;2.33;;
30948;SDS011;17637;51.984;21.208;2023-08-08T06:30:42;6.20;;;2.00;;
30948;SDS011;17637;51.984;21.208;2023-08-08T06:33:14;6.88;;;2.63;;
30948;SDS011;17637;51.984;21.208;2023-08-08T06:35:46;7.82;;;2.40;;
30948;SDS011;17637;51.984;21.208;2023-08-08T06:38:18;6.47;;;2.20;;
30948;SDS011;17637;51.984;21.208;2023-08-08T06:40:50;6.68;;;2.22;;
30948;SDS011;17637;51.984;21.208;2023-08-08T06:43:23;6.93;;;2.20;;
30948;SDS011;17637;51.984;21.208;2023-08-08T06:45:55;5.00;;;2.17;;
30948;SDS011;17637;51.984;21.208;2023-08-08T06:48:27;4.95;;;2.00;;
30948;SDS011;17637;51.984;21.208;2023-08-08T06:50:59;7.35;;;2.72;;
30948;SDS011;17637;51.984;21.208;2023-08-08T06:53:31;3.95;;;2.35;;
30948;SDS011;17637;51.984;21.208;2023-08-08T06:56:03;4.57;;;2.42;;
30948;SDS011;17637;51.984;21.208;2023-08-08T06:58:35;3.67;;;2.00;;
30948;SDS011;17637;51.984;21.208;2023-08-08T07:01:07;6.88;;;2.05;;
30948;SDS011;17637;51.984;21.208;2023-08-08T07:03:39;4.20;;;2.20;;
30948;SDS011;17637;51.984;21.208;2023-08-08T07:06:11;7.30;;;2.40;;
30948;SDS011;17637;51.984;21.208;2023-08-08T07:08:43;8.02;;;2.63;;
30948;SDS011;17637;51.984;21.208;2023-08-08T07:11:14;5.80;;;2.30;;
30948;SDS011;17637;51.984;21.208;2023-08-08T07:13:46;4.75;;;2.50;;
30948;SDS011;17637;51.984;21.208;2023-08-08T07:16:18;7.55;;;2.45;;
30948;SDS011;17637;51.984;21.208;2023-08-08T07:18:50;8.73;;;2.25;;
30948;SDS011;17637;51.984;21.208;2023-08-08T07:21:25;5.55;;;1.92;;
30948;SDS011;17637;51.984;21.208;2023-08-08T07:23:57;5.53;;;2.50;;
30948;SDS011;17637;51.984;21.208;2023-08-08T07:26:31;7.28;;;2.30;;
30948;SDS011;17637;51.984;21.208;2023-08-08T07:29:02;8.95;;;2.50;;
30948;SDS011;17637;51.984;21.208;2023-08-08T07:31:37;7.15;;;2.75;;
30948;SDS011;17637;51.984;21.208;2023-08-08T07:34:09;4.53;;;2.05;;
30948;SDS011;17637;51.984;21.208;2023-08-08T07:36:41;6.30;;;2.33;;
30948;SDS011;17637;51.984;21.208;2023-08-08T07:39:13;5.18;;;2.20;;
30948;SDS011;17637;51.984;21.208;2023-08-08T07:41:45;7.32;;;2.20;;
30948;SDS011;17637;51.984;21.208;2023-08-08T07:44:17;7.00;;;2.00;;
30948;SDS011;17637;51.984;21.208;2023-08-08T07:46:49;6.15;;;1.80;;
30948;SDS011;17637;51.984;21.208;2023-08-08T07:49:21;4.25;;;2.00;;
30948;SDS011;17637;51.984;21.208;2023-08-08T07:51:53;6.57;;;2.00;;
30948;SDS011;17637;51.984;21.208;2023-08-08T07:54:24;4.93;;;2.03;;
30948;SDS011;17637;51.984;21.208;2023-08-08T07:56:56;6.10;;;1.90;;
30948;SDS011;17637;51.984;21.208;2023-08-08T07:59:28;5.25;;;2.00;;
30948;SDS011;17637;51.984;21.208;2023-08-08T08:02:00;4.60;;;2.05;;
30948;SDS011;17637;51.984;21.208;2023-08-08T08:04:32;6.55;;;2.13;;
30948;SDS011;17637;51.984;21.208;2023-08-08T08:07:05;6.15;;;2.00;;
30948;SDS011;17637;51.984;21.208;2023-08-08T08:09:37;4.22;;;1.88;;
30948;SDS011;17637;51.984;21.208;2023-08-08T08:12:09;6.45;;;2.00;;
30948;SDS011;17637;51.984;21.208;2023-08-08T08:14:41;6.85;;;1.67;;
30948;SDS011;17637;51.984;21.208;2023-08-08T08:17:13;4.82;;;1.90;;
30948;SDS011;17637;51.984;21.208;2023-08-08T08:19:45;7.10;;;2.35;;
30948;SDS011;17637;51.984;21.208;2023-08-08T08:22:17;4.68;;;1.92;;
30948;SDS011;17637;51.984;21.208;2023-08-08T08:24:49;5.03;;;1.88;;
30948;SDS011;17637;51.984;21.208;2023-08-08T08:27:21;4.80;;;1.60;;
30948;SDS011;17637;51.984;21.208;2023-08-08T08:29:53;4.35;;;1.90;;
30948;SDS011;17637;51.984;21.208;2023-08-08T08:32:25;3.53;;;1.90;;
30948;SDS011;17637;51.984;21.208;2023-08-08T08:34:57;5.10;;;1.60;;
30948;SDS011;17637;51.984;21.208;2023-08-08T08:37:29;3.00;;;1.58;;
30948;SDS011;17637;51.984;21.208;2023-08-08T08:40:01;4.28;;;2.05;;
30948;SDS011;17637;51.984;21.208;2023-08-08T08:42:36;5.75;;;1.70;;
30948;SDS011;17637;51.984;21.208;2023-08-08T08:45:10;5.68;;;1.80;;
30948;SDS011;17637;51.984;21.208;2023-08-08T08:47:42;2.92;;;2.08;;
30948;SDS011;17637;51.984;21.208;2023-08-08T08:50:18;6.05;;;1.80;;
30948;SDS011;17637;51.984;21.208;2023-08-08T08:52:50;7.45;;;2.30;;
30948;SDS011;17637;51.984;21.208;2023-08-08T08:55:22;4.55;;;1.85;;
30948;SDS011;17637;51.984;21.208;2023-08-08T08:57:54;6.70;;;2.05;;
30948;SDS011;17637;51.984;21.208;2023-08-08T09:00:26;6.00;;;2.20;;
30948;SDS011;17637;51.984;21.208;2023-08-08T09:02:59;3.72;;;1.90;;
30948;SDS011;17637;51.984;21.208;2023-08-08T09:05:31;7.45;;;1.63;;
30948;SDS011;17637;51.984;21.208;2023-08-08T09:08:04;6.32;;;1.80;;
30948;SDS011;17637;51.984;21.208;2023-08-08T09:10:36;3.70;;;2.00;;
30948;SDS011;17637;51.984;21.208;2023-08-08T09:13:08;6.35;;;1.73;;
30948;SDS011;17637;51.984;21.208;2023-08-08T09:15:41;7.40;;;2.00;;
30948;SDS011;17637;51.984;21.208;2023-08-08T09:18:12;3.42;;;1.75;;
30948;SDS011;17637;51.984;21.208;2023-08-08T09:20:48;4.72;;;2.17;;
30948;SDS011;17637;51.984;21.208;2023-08-08T09:23:20;4.43;;;2.08;;
30948;SDS011;17637;51.984;21.208;2023-08-08T09:25:52;3.30;;;1.80;;
30948;SDS011;17637;51.984;21.208;2023-08-08T09:28:24;5.40;;;1.70;;
30948;SDS011;17637;51.984;21.208;2023-08-08T09:30:57;3.75;;;1.83;;
30948;SDS011;17637;51.984;21.208;2023-08-08T09:33:29;6.28;;;2.25;;
30948;SDS011;17637;51.984;21.208;2023-08-08T09:36:01;5.65;;;2.25;;
30948;SDS011;17637;51.984;21.208;2023-08-08T09:38:33;6.43;;;2.10;;
30948;SDS011;17637;51.984;21.208;2023-08-08T09:41:05;6.63;;;2.33;;
30948;SDS011;17637;51.984;21.208;2023-08-08T09:43:37;7.20;;;1.85;;
30948;SDS011;17637;51.984;21.208;2023-08-08T09:46:09;4.65;;;2.08;;
30948;SDS011;17637;51.984;21.208;2023-08-08T09:48:42;6.25;;;2.00;;
30948;SDS011;17637;51.984;21.208;2023-08-08T09:51:15;5.63;;;1.73;;
30948;SDS011;17637;51.984;21.208;2023-08-08T09:53:47;5.88;;;1.60;;
30948;SDS011;17637;51.984;21.208;2023-08-08T09:56:20;3.80;;;1.48;;
30948;SDS011;17637;51.984;21.208;2023-08-08T09:58:55;3.60;;;1.60;;
30948;SDS011;17637;51.984;21.208;2023-08-08T10:01:28;3.05;;;1.30;;
30948;SDS011;17637;51.984;21.208;2023-08-08T10:04:01;4.03;;;1.58;;
30948;SDS011;17637;51.984;21.208;2023-08-08T10:06:34;4.15;;;1.50;;
30948;SDS011;17637;51.984;21.208;2023-08-08T10:09:06;3.65;;;1.40;;
30948;SDS011;17637;51.984;21.208;2023-08-08T10:11:39;3.53;;;1.70;;
30948;SDS011;17637;51.984;21.208;2023-08-08T10:14:14;5.35;;;1.60;;
30948;SDS011;17637;51.984;21.208;2023-08-08T10:16:47;5.63;;;1.35;;
30948;SDS011;17637;51.984;21.208;2023-08-08T10:19:21;5.97;;;1.48;;
30948;SDS011;17637;51.984;21.208;2023-08-08T10:21:58;4.10;;;1.42;;
30948;SDS011;17637;51.984;21.208;2023-08-08T10:24:35;4.85;;;1.35;;
30948;SDS011;17637;51.984;21.208;2023-08-08T10:27:07;3.63;;;1.10;;
30948;SDS011;17637;51.984;21.208;2023-08-08T10:29:40;7.20;;;1.60;;
30948;SDS011;17637;51.984;21.208;2023-08-08T10:32:21;4.32;;;1.45;;
30948;SDS011;17637;51.984;21.208;2023-08-08T10:34:59;3.30;;;1.42;;
30948;SDS011;17637;51.984;21.208;2023-08-08T10:37:35;3.53;;;1.17;;
30948;SDS011;17637;51.984;21.208;2023-08-08T10:40:07;3.22;;;1.35;;
30948;SDS011;17637;51.984;21.208;2023-08-08T10:42:43;3.08;;;1.38;;
30948;SDS011;17637;51.984;21.208;2023-08-08T10:45:15;5.50;;;1.45;;
30948;SDS011;17637;51.984;21.208;2023-08-08T10:47:48;2.08;;;1.15;;
30948;SDS011;17637;51.984;21.208;2023-08-08T10:50:23;3.40;;;1.45;;
30948;SDS011;17637;51.984;21.208;2023-08-08T10:52:55;3.63;;;1.42;;
30948;SDS011;17637;51.984;21.208;2023-08-08T10:55:31;4.20;;;1.35;;
30948;SDS011;17637;51.984;21.208;2023-08-08T10:58:08;2.45;;;1.27;;
30948;SDS011;17637;51.984;21.208;2023-08-08T11:00:45;4.50;;;1.55;;
30948;SDS011;17637;51.984;21.208;2023-08-08T11:03:17;3.50;;;1.20;;
30948;SDS011;17637;51.984;21.208;2023-08-08T11:05:50;5.90;;;1.30;;
30948;SDS011;17637;51.984;21.208;2023-08-08T11:08:23;2.83;;;1.05;;
30948;SDS011;17637;51.984;21.208;2023-08-08T11:10:55;5.60;;;1.60;;
30948;SDS011;17637;51.984;21.208;2023-08-08T11:13:27;2.42;;;1.15;;
30948;SDS011;17637;51.984;21.208;2023-08-08T11:15:59;2.63;;;1.60;;
30948;SDS011;17637;51.984;21.208;2023-08-08T11:18:33;3.47;;;1.10;;
30948;SDS011;17637;51.984;21.208;2023-08-08T11:21:10;3.08;;;1.60;;
30948;SDS011;17637;51.984;21.208;2023-08-08T11:23:49;3.45;;;1.65;;
30948;SDS011;17637;51.984;21.208;2023-08-08T11:26:21;4.68;;;1.63;;
30948;SDS011;17637;51.984;21.208;2023-08-08T11:28:53;4.10;;;1.25;;
30948;SDS011;17637;51.984;21.208;2023-08-08T11:31:26;2.75;;;1.33;;
30948;SDS011;17637;51.984;21.208;2023-08-08T11:33:58;5.00;;;1.40;;
30948;SDS011;17637;51.984;21.208;2023-08-08T11:36:32;4.32;;;1.45;;
30948;SDS011;17637;51.984;21.208;2023-08-08T11:39:05;3.53;;;1.20;;
30948;SDS011;17637;51.984;21.208;2023-08-08T11:41:42;4.55;;;1.40;;
30948;SDS011;17637;51.984;21.208;2023-08-08T11:44:14;2.15;;;1.05;;
30948;SDS011;17637;51.984;21.208;2023-08-08T11:46:47;5.00;;;1.00;;
30948;SDS011;17637;51.984;21.208;2023-08-08T11:49:19;2.42;;;1.17;;
30948;SDS011;17637;51.984;21.208;2023-08-08T11:51:53;3.53;;;1.40;;
30948;SDS011;17637;51.984;21.208;2023-08-08T11:54:31;3.78;;;1.10;;
30948;SDS011;17637;51.984;21.208;2023-08-08T11:57:03;3.05;;;1.13;;
30948;SDS011;17637;51.984;21.208;2023-08-08T11:59:35;2.05;;;1.20;;
30948;SDS011;17637;51.984;21.208;2023-08-08T12:02:07;1.67;;;1.15;;
30948;SDS011;17637;51.984;21.208;2023-08-08T12:04:47;2.25;;;1.10;;
30948;SDS011;17637;51.984;21.208;2023-08-08T12:07:19;2.78;;;1.40;;
30948;SDS011;17637;51.984;21.208;2023-08-08T12:09:52;3.30;;;1.17;;
30948;SDS011;17637;51.984;21.208;2023-08-08T12:12:25;3.90;;;1.05;;
30948;SDS011;17637;51.984;21.208;2023-08-08T12:14:58;2.33;;;1.13;;
30948;SDS011;17637;51.984;21.208;2023-08-08T12:17:32;1.95;;;1.10;;
30948;SDS011;17637;51.984;21.208;2023-08-08T12:20:04;4.85;;;1.23;;
30948;SDS011;17637;51.984;21.208;2023-08-08T12:22:37;4.93;;;1.27;;
30948;SDS011;17637;51.984;21.208;2023-08-08T12:25:09;3.22;;;1.20;;
30948;SDS011;17637;51.984;21.208;2023-08-08T12:27:41;4.80;;;1.02;;
30948;SDS011;17637;51.984;21.208;2023-08-08T12:30:13;2.38;;;1.10;;
30948;SDS011;17637;51.984;21.208;2023-08-08T12:32:45;2.08;;;1.17;;
30948;SDS011;17637;51.984;21.208;2023-08-08T12:35:16;1.98;;;1.00;;
30948;SDS011;17637;51.984;21.208;2023-08-08T12:37:48;2.47;;;0.95;;
30948;SDS011;17637;51.984;21.208;2023-08-08T12:40:20;2.28;;;1.13;;
30948;SDS011;17637;51.984;21.208;2023-08-08T12:42:52;2.78;;;1.35;;
30948;SDS011;17637;51.984;21.208;2023-08-08T12:45:24;1.77;;;1.00;;
30948;SDS011;17637;51.984;21.208;2023-08-08T12:47:56;2.20;;;1.10;;
30948;SDS011;17637;51.984;21.208;2023-08-08T12:50:28;3.13;;;1.38;;
30948;SDS011;17637;51.984;21.208;2023-08-08T12:53:00;3.05;;;1.23;;
30948;SDS011;17637;51.984;21.208;2023-08-08T12:55:32;2.70;;;0.98;;
30948;SDS011;17637;51.984;21.208;2023-08-08T12:58:03;2.70;;;0.95;;
30948;SDS011;17637;51.984;21.208;2023-08-08T13:00:35;2.88;;;1.20;;
30948;SDS011;17637;51.984;21.208;2023-08-08T13:03:07;2.03;;;1.25;;
30948;SDS011;17637;51.984;21.208;2023-08-08T13:05:39;3.45;;;1.50;;
30948;SDS011;17637;51.984;21.208;2023-08-08T13:08:11;2.22;;;1.20;;
30948;SDS011;17637;51.984;21.208;2023-08-08T13:10:45;2.75;;;1.30;;
30948;SDS011;17637;51.984;21.208;2023-08-08T13:13:16;2.45;;;1.10;;
30948;SDS011;17637;51.984;21.208;2023-08-08T13:15:48;2.03;;;1.10;;
30948;SDS011;17637;51.984;21.208;2023-08-08T13:18:20;1.73;;;1.02;;
30948;SDS011;17637;51.984;21.208;2023-08-08T13:20:52;2.05;;;0.93;;
30948;SDS011;17637;51.984;21.208;2023-08-08T13:23:24;1.92;;;0.90;;
30948;SDS011;17637;51.984;21.208;2023-08-08T13:25:56;3.13;;;0.85;;
30948;SDS011;17637;51.984;21.208;2023-08-08T13:28:29;3.10;;;1.00;;
30948;SDS011;17637;51.984;21.208;2023-08-08T13:31:01;3.40;;;0.98;;
30948;SDS011;17637;51.984;21.208;2023-08-08T13:33:33;3.15;;;1.17;;
30948;SDS011;17637;51.984;21.208;2023-08-08T13:36:05;2.53;;;1.10;;
30948;SDS011;17637;51.984;21.208;2023-08-08T13:38:37;2.10;;;1.05;;
30948;SDS011;17637;51.984;21.208;2023-08-08T13:41:09;2.67;;;1.17;;
30948;SDS011;17637;51.984;21.208;2023-08-08T13:43:41;1.77;;;0.90;;
30948;SDS011;17637;51.984;21.208;2023-08-08T13:46:13;2.85;;;0.93;;
30948;SDS011;17637;51.984;21.208;2023-08-08T13:48:45;1.40;;;1.00;;
30948;SDS011;17637;51.984;21.208;2023-08-08T13:51:17;2.55;;;1.15;;
30948;SDS011;17637;51.984;21.208;2023-08-08T13:53:49;1.92;;;1.10;;
30948;SDS011;17637;51.984;21.208;2023-08-08T13:56:21;1.52;;;0.95;;
30948;SDS011;17637;51.984;21.208;2023-08-08T13:58:53;2.80;;;1.25;;
30948;SDS011;17637;51.984;21.208;2023-08-08T14:01:25;2.33;;;1.23;;
30948;SDS011;17637;51.984;21.208;2023-08-08T14:03:57;2.50;;;1.23;;
30948;SDS011;17637;51.984;21.208;2023-08-08T14:06:29;3.28;;;1.17;;
30948;SDS011;17637;51.984;21.208;2023-08-08T14:09:02;3.35;;;0.90;;
30948;SDS011;17637;51.984;21.208;2023-08-08T14:11:35;1.00;;;0.90;;
30948;SDS011;17637;51.984;21.208;2023-08-08T14:14:07;1.95;;;1.23;;
30948;SDS011;17637;51.984;21.208;2023-08-08T14:16:39;2.55;;;1.20;;
30948;SDS011;17637;51.984;21.208;2023-08-08T14:19:11;4.03;;;1.20;;
30948;SDS011;17637;51.984;21.208;2023-08-08T14:21:44;1.70;;;1.35;;
30948;SDS011;17637;51.984;21.208;2023-08-08T14:24:16;2.50;;;1.10;;
30948;SDS011;17637;51.984;21.208;2023-08-08T14:26:48;3.75;;;1.05;;
30948;SDS011;17637;51.984;21.208;2023-08-08T14:29:20;1.77;;;1.13;;
30948;SDS011;17637;51.984;21.208;2023-08-08T14:31:52;2.33;;;1.55;;
30948;SDS011;17637;51.984;21.208;2023-08-08T14:34:34;2.95;;;1.00;;
30948;SDS011;17637;51.984;21.208;2023-08-08T14:37:06;2.83;;;1.23;;
30948;SDS011;17637;51.984;21.208;2023-08-08T14:39:38;1.42;;;1.23;;
30948;SDS011;17637;51.984;21.208;2023-08-08T14:42:10;2.63;;;1.30;;
30948;SDS011;17637;51.984;21.208;2023-08-08T14:44:41;2.30;;;1.30;;
30948;SDS011;17637;51.984;21.208;2023-08-08T14:47:13;2.75;;;1.08;;
30948;SDS011;17637;51.984;21.208;2023-08-08T14:49:45;2.20;;;0.95;;
30948;SDS011;17637;51.984;21.208;2023-08-08T14:52:18;1.67;;;1.08;;
30948;SDS011;17637;51.984;21.208;2023-08-08T14:54:50;3.38;;;1.20;;
30948;SDS011;17637;51.984;21.208;2023-08-08T14:57:22;2.15;;;1.20;;
30948;SDS011;17637;51.984;21.208;2023-08-08T14:59:54;5.25;;;1.40;;
30948;SDS011;17637;51.984;21.208;2023-08-08T15:02:26;1.63;;;1.15;;
30948;SDS011;17637;51.984;21.208;2023-08-08T15:04:58;1.77;;;1.17;;
30948;SDS011;17637;51.984;21.208;2023-08-08T15:07:30;2.08;;;1.02;;
30948;SDS011;17637;51.984;21.208;2023-08-08T15:10:02;1.88;;;1.20;;
30948;SDS011;17637;51.984;21.208;2023-08-08T15:12:34;1.80;;;1.10;;